Portland — WDG2201 — position and weather

sailwx.info

Track history (hours):
 
Tides and Currents Weather Stations Pressure Air Temp Water Temp Dewpoint Dewpoint Depression Visibility Wind Speed Wind Dir Waves Ship Positions

Portland

Owner: Shaver Transportation Company, Portland, OR. More information available from US FCC via Universal Licensing System and Coast Guard Vessel Documentation Center.

Last reported at 2016-Jul-25 21:33 UTC. Time now 2016-Jul-25 22:02 UTC.
Position N 46°05' W 122°56'.

Length 27 m; draft 4 m.

Type: Towing. MMSI: 367315814.

Date/timePositionNaut miles runAvg speedWind from/ knotsBaromVisibWave heightAir tempDewpointWater temp
2016-Jul-25 21:33N 46°05' W 122°56'0 0.0
2016-Jul-25 20:33N 46°05' W 122°56'0 0.0
2016-Jul-25 19:33N 46°05' W 122°56'5 5.2
2016-Jul-25 18:34N 46°01' W 122°52'5 5.0
2016-Jul-25 17:32N 46°05' W 122°56'0 0.0
2016-Jul-25 16:32N 46°05' W 122°56'0 0.0
2016-Jul-25 15:32N 46°05' W 122°56'0 0.0
2016-Jul-25 14:32N 46°05' W 122°56'0 0.0
2016-Jul-25 13:32N 46°05' W 122°56'0 0.0
2016-Jul-25 12:26N 46°05' W 122°56'0 0.0
2016-Jul-25 11:32N 46°05' W 122°56'0 0.0
2016-Jul-25 10:32N 46°05' W 122°56'0 0.0
2016-Jul-25 09:32N 46°05' W 122°56'5 4.7
2016-Jul-25 08:33N 46°02' W 122°52'5 4.6
2016-Jul-25 07:33N 46°05' W 122°56'0 0.0
2016-Jul-25 06:31N 46°05' W 122°56'0 0.0
2016-Jul-25 05:28N 46°05' W 122°56'0 0.0
2016-Jul-25 04:31N 46°05' W 122°56'0 0.0
2016-Jul-25 03:28N 46°05' W 122°56'0 0.0
2016-Jul-25 02:28N 46°05' W 122°56'0 0.0
2016-Jul-25 01:28N 46°05' W 122°56'0 0.0
2016-Jul-25 00:31N 46°05' W 122°56'0 0.0
2016-Jul-24 23:31N 46°05' W 122°56'0 0.0
2016-Jul-24 22:31N 46°05' W 122°56'0 0.0
2016-Jul-24 21:31N 46°05' W 122°56'0 0.0
2016-Jul-24 20:28N 46°05' W 122°56'0 0.0
2016-Jul-24 19:28N 46°05' W 122°56'0 0.0
2016-Jul-24 18:28N 46°05' W 122°56'0 0.0
2016-Jul-24 17:28N 46°05' W 122°56'0 0.0
2016-Jul-24 16:31N 46°05' W 122°56'0 0.0
2016-Jul-24 15:28N 46°05' W 122°56'0 0.0
2016-Jul-24 14:31N 46°05' W 122°56'0 0.0
2016-Jul-24 13:31N 46°05' W 122°56'0 0.0
2016-Jul-24 12:28N 46°05' W 122°56'0 0.0
2016-Jul-24 11:31N 46°05' W 122°56'0 0.0
2016-Jul-24 10:31N 46°05' W 122°56'0 0.0
2016-Jul-24 09:28N 46°05' W 122°56'0 0.0
2016-Jul-24 08:28N 46°05' W 122°56'0 0.0
2016-Jul-24 07:31N 46°05' W 122°56'0 0.0
2016-Jul-24 06:31N 46°05' W 122°56'0 0.0
2016-Jul-24 05:28N 46°05' W 122°56'0 0.0
2016-Jul-24 04:31N 46°05' W 122°56'0 0.0
2016-Jul-24 03:31N 46°05' W 122°56'0 0.0
2016-Jul-24 02:28N 46°05' W 122°56'0 0.0
2016-Jul-24 01:22N 46°05' W 122°56'0 0.0
2016-Jul-24 00:31N 46°05' W 122°56'0 0.0
2016-Jul-23 23:31N 46°05' W 122°56'0 0.0
2016-Jul-23 22:31N 46°05' W 122°56'0 0.0
2016-Jul-23 21:28N 46°05' W 122°56'0 0.0
2016-Jul-23 20:31N 46°05' W 122°56'0 0.0
2016-Jul-23 19:31N 46°05' W 122°56'0 0.0
2016-Jul-23 18:31N 46°05' W 122°56'0 0.0
2016-Jul-23 17:28N 46°05' W 122°56'0 0.0
2016-Jul-23 16:28N 46°05' W 122°56'0 0.0
2016-Jul-23 15:31N 46°05' W 122°56'0 0.0
2016-Jul-23 14:31N 46°05' W 122°56'0 0.0
2016-Jul-23 13:34N 46°05' W 122°56'8 7.5
2016-Jul-23 12:33N 45°59' W 122°50'4 4.2
2016-Jul-23 11:34N 46°03' W 122°53'5 4.7
2016-Jul-23 10:33N 46°06' W 122°57'1 1.4
2016-Jul-23 09:33N 46°05' W 122°56'0 0.0
2016-Jul-23 08:33N 46°05' W 122°56'0 0.0
2016-Jul-23 07:34N 46°05' W 122°56'0 0.0
2016-Jul-23 06:33N 46°05' W 122°56'0 0.0
2016-Jul-23 04:33N 46°05' W 122°56'0 0.0
2016-Jul-23 03:33N 46°05' W 122°56'0 0.0
2016-Jul-23 02:34N 46°05' W 122°56'0 0.0
2016-Jul-23 01:33N 46°05' W 122°56'0 0.0
2016-Jul-23 00:33N 46°05' W 122°56'0 0.0
2016-Jul-22 23:33N 46°05' W 122°56'0 0.0
2016-Jul-22 22:33N 46°05' W 122°56'0 0.0
2016-Jul-22 21:34N 46°05' W 122°56'0 0.0
2016-Jul-22 20:33N 46°05' W 122°56'0 0.0
2016-Jul-22 19:33N 46°05' W 122°56'0 0.0
2016-Jul-22 18:33N 46°05' W 122°56'0 0.0
2016-Jul-22 17:34N 46°05' W 122°56'0 0.0
2016-Jul-22 16:33N 46°05' W 122°56'0 0.0
2016-Jul-22 15:34N 46°05' W 122°56'2 2.0
2016-Jul-22 14:33N 46°07' W 122°58'10 9.9
2016-Jul-22 13:33N 46°11' W 123°11'2 1.8
2016-Jul-22 12:33N 46°11' W 123°09'1010.0
2016-Jul-22 11:34N 46°06' W 122°57'1 0.6
2016-Jul-22 10:33N 46°05' W 122°56'0 0.0
2016-Jul-22 09:33N 46°05' W 122°56'0 0.0
2016-Jul-22 08:33N 46°05' W 122°56'0 0.0
2016-Jul-22 07:33N 46°05' W 122°56'0 0.0
2016-Jul-22 04:30N 46°05' W 122°56'0 0.0
2016-Jul-22 03:33N 46°05' W 122°56'0 0.0
2016-Jul-22 02:30N 46°05' W 122°56'0 0.0
2016-Jul-22 01:30N 46°05' W 122°56'0 0.0
2016-Jul-22 00:30N 46°05' W 122°56'0 0.5
2016-Jul-21 23:33N 46°06' W 122°56'1 1.1
2016-Jul-21 22:34N 46°05' W 122°55'1 0.7
2016-Jul-21 21:33N 46°05' W 122°56'0 0.0
2016-Jul-21 20:33N 46°05' W 122°56'0 0.0
2016-Jul-21 19:33N 46°05' W 122°56'0 0.0
2016-Jul-21 18:33N 46°05' W 122°56'0 0.0
2016-Jul-21 17:33N 46°05' W 122°56'0 0.0
2016-Jul-21 16:33N 46°05' W 122°56'0 0.0
2016-Jul-21 15:30N 46°05' W 122°56'0 0.0
2016-Jul-21 14:33N 46°05' W 122°56'0 0.0
2016-Jul-21 13:33N 46°05' W 122°56'0 0.0
2016-Jul-21 12:33N 46°05' W 122°56'0 0.0
2016-Jul-21 11:33N 46°05' W 122°56'1 0.6
2016-Jul-21 10:34N 46°06' W 122°56'0 0.0
2016-Jul-21 09:33N 46°06' W 122°56'0 0.1
2016-Jul-21 08:33N 46°06' W 122°56'0 0.1
2016-Jul-21 07:33N 46°06' W 122°56'1 0.6
2016-Jul-21 06:33N 46°05' W 122°56'0 0.0
2016-Jul-21 05:34N 46°05' W 122°56'0 0.0
2016-Jul-21 04:33N 46°05' W 122°56'0 0.0
2016-Jul-21 03:33N 46°05' W 122°56'0 0.0
2016-Jul-21 02:34N 46°05' W 122°56'0 0.0
2016-Jul-21 01:34N 46°05' W 122°56'0 0.0
2016-Jul-21 00:34N 46°05' W 122°56'0 0.0
2016-Jul-20 23:33N 46°05' W 122°56'0 0.0
2016-Jul-20 22:34N 46°05' W 122°56'0 0.0
2016-Jul-20 21:33N 46°05' W 122°56'2 1.5
2016-Jul-20 20:31N 46°06' W 122°58'2 1.6
2016-Jul-20 19:32N 46°05' W 122°56'0 0.0
2016-Jul-20 18:23N 46°05' W 122°56'0 0.0
2016-Jul-20 17:26N 46°05' W 122°56'0 0.0
2016-Jul-20 16:32N 46°05' W 122°56'0 0.0
2016-Jul-20 15:32N 46°05' W 122°56'0 0.0
2016-Jul-20 14:33N 46°05' W 122°56'8 7.8
2016-Jul-20 13:33N 46°10' W 123°05'4 4.3
2016-Jul-20 12:34N 46°11' W 123°11'3 3.2
2016-Jul-20 11:34N 46°11' W 123°06'7 7.1
2016-Jul-20 10:33N 46°07' W 122°58'2 1.9
2016-Jul-20 09:32N 46°05' W 122°56'0 0.0
2016-Jul-20 08:29N 46°05' W 122°56'0 0.0
2016-Jul-20 07:29N 46°05' W 122°56'0 0.0
2016-Jul-20 06:32N 46°05' W 122°56'0 0.0
2016-Jul-20 05:32N 46°05' W 122°56'0 0.0
2016-Jul-20 04:29N 46°05' W 122°56'0 0.0
2016-Jul-20 03:29N 46°05' W 122°56'0 0.0
2016-Jul-20 02:32N 46°05' W 122°56'0 0.0
2016-Jul-20 01:32N 46°05' W 122°56'0 0.0
2016-Jul-20 00:32N 46°05' W 122°56'0 0.0
2016-Jul-19 23:32N 46°05' W 122°56'0 0.0
2016-Jul-19 22:32N 46°05' W 122°56'0 0.0
2016-Jul-19 21:32N 46°05' W 122°56'0 0.0
2016-Jul-19 20:29N 46°05' W 122°56'0 0.0
2016-Jul-19 19:29N 46°05' W 122°56'0 0.0
2016-Jul-19 18:32N 46°05' W 122°56'0 0.0
2016-Jul-19 17:29N 46°05' W 122°56'0 0.0
2016-Jul-19 16:32N 46°05' W 122°56'0 0.0
2016-Jul-19 15:29N 46°05' W 122°56'0 0.0
2016-Jul-19 14:32N 46°05' W 122°56'0 0.0
2016-Jul-19 13:32N 46°05' W 122°56'0 0.0
2016-Jul-19 12:29N 46°05' W 122°56'0 0.0
2016-Jul-19 11:32N 46°05' W 122°56'0 0.0
2016-Jul-19 10:32N 46°05' W 122°56'0 0.0
2016-Jul-19 09:32N 46°05' W 122°56'0 0.0
2016-Jul-19 08:32N 46°05' W 122°56'0 0.0
2016-Jul-19 07:32N 46°05' W 122°56'0 0.0
2016-Jul-19 04:29N 46°05' W 122°56'0 0.0
2016-Jul-19 03:32N 46°05' W 122°56'2 1.6
2016-Jul-19 02:33N 46°06' W 122°58'0 0.3
2016-Jul-19 01:33N 46°06' W 122°58'2 1.6
2016-Jul-19 00:31N 46°05' W 122°56'0 0.0
2016-Jul-18 23:31N 46°05' W 122°56'0 0.0
2016-Jul-18 22:31N 46°05' W 122°56'0 0.0
2016-Jul-18 21:31N 46°05' W 122°56'0 0.0
2016-Jul-18 20:25N 46°05' W 122°56'0 0.0
2016-Jul-18 19:31N 46°05' W 122°56'1 1.1
2016-Jul-18 18:33N 46°06' W 122°57'0 0.5
2016-Jul-18 17:33N 46°06' W 122°58'2 1.4
2016-Jul-18 16:28N 46°05' W 122°56'0 0.0
2016-Jul-18 15:28N 46°05' W 122°56'0 0.0
2016-Jul-18 14:31N 46°05' W 122°56'0 0.5
2016-Jul-18 13:33N 46°06' W 122°56'1 1.3
2016-Jul-18 12:33N 46°06' W 122°58'2 1.5
2016-Jul-18 11:29N 46°05' W 122°56'0 0.0
2016-Jul-18 10:32N 46°05' W 122°56'0 0.0
2016-Jul-18 09:32N 46°05' W 122°56'0 0.0
2016-Jul-18 08:32N 46°05' W 122°56'0 0.0
2016-Jul-18 07:32N 46°05' W 122°56'0 0.0
2016-Jul-18 06:32N 46°05' W 122°56'0 0.0
2016-Jul-18 05:29N 46°05' W 122°56'0 0.0
2016-Jul-18 04:32N 46°05' W 122°56'0 0.0
2016-Jul-18 03:29N 46°05' W 122°56'0 0.0
2016-Jul-18 02:26N 46°05' W 122°56'0 0.0
2016-Jul-18 01:26N 46°05' W 122°56'0 0.0
2016-Jul-18 00:32N 46°05' W 122°56'0 0.0
2016-Jul-17 23:32N 46°05' W 122°56'0 0.0
2016-Jul-17 22:32N 46°05' W 122°56'0 0.0
2016-Jul-17 21:33N 46°05' W 122°56'8 7.7
2016-Jul-17 20:34N 45°59' W 122°50'0 0.0
2016-Jul-17 19:33N 45°59' W 122°50'1010.5
2016-Jul-17 18:34N 45°49' W 122°48'1010.2
2016-Jul-17 17:33N 45°39' W 122°45'0 0.0
2016-Jul-17 16:34N 45°39' W 122°45'0 0.0
2016-Jul-17 15:34N 45°39' W 122°45'0 0.0
2016-Jul-17 14:33N 45°39' W 122°45'0 0.0
2016-Jul-17 13:34N 45°39' W 122°45'0 0.0
2016-Jul-17 12:33N 45°39' W 122°45'0 0.0
2016-Jul-17 11:33N 45°39' W 122°45'0 0.0
2016-Jul-17 10:33N 45°39' W 122°45'0 0.0
2016-Jul-17 09:34N 45°39' W 122°45'0 0.0
2016-Jul-17 08:34N 45°39' W 122°45'0 0.0
2016-Jul-17 07:34N 45°39' W 122°45'0 0.0
2016-Jul-17 06:33N 45°39' W 122°45'0 0.0
2016-Jul-17 04:33N 45°39' W 122°45'0 0.0
2016-Jul-17 03:31N 45°39' W 122°45'0 0.0
2016-Jul-17 02:28N 45°39' W 122°45'0 0.0
2016-Jul-17 01:31N 45°39' W 122°45'0 0.0
2016-Jul-17 00:31N 45°39' W 122°45'0 0.0
2016-Jul-16 23:31N 45°39' W 122°45'0 0.0
2016-Jul-16 22:31N 45°39' W 122°45'0 0.0
2016-Jul-16 21:31N 45°39' W 122°45'0 0.0
2016-Jul-16 20:28N 45°39' W 122°45'0 0.0
2016-Jul-16 19:31N 45°39' W 122°45'0 0.0
2016-Jul-16 18:28N 45°39' W 122°45'0 0.0
2016-Jul-16 17:28N 45°39' W 122°45'0 0.0
2016-Jul-16 16:31N 45°39' W 122°45'0 0.0
2016-Jul-16 15:31N 45°39' W 122°45'0 0.0
2016-Jul-16 14:31N 45°39' W 122°45'0 0.0
2016-Jul-16 13:28N 45°39' W 122°45'0 0.0
2016-Jul-16 12:31N 45°39' W 122°45'0 0.0
2016-Jul-16 11:28N 45°39' W 122°45'0 0.0
2016-Jul-16 10:28N 45°39' W 122°45'0 0.0
2016-Jul-16 09:28N 45°39' W 122°45'0 0.0
2016-Jul-16 08:31N 45°39' W 122°45'0 0.0
2016-Jul-16 07:31N 45°39' W 122°45'0 0.0
2016-Jul-16 06:28N 45°39' W 122°45'0 0.0
2016-Jul-16 04:28N 45°39' W 122°45'0 0.0
2016-Jul-16 03:31N 45°39' W 122°45'0 0.0
2016-Jul-16 02:28N 45°39' W 122°45'0 0.0
2016-Jul-16 01:31N 45°39' W 122°45'0 0.0
2016-Jul-16 00:22N 45°39' W 122°45'0 0.0
2016-Jul-15 23:28N 45°39' W 122°45'0 0.0
2016-Jul-15 22:31N 45°39' W 122°45'  
Track history (hours):
 
Tides and Currents Weather Stations Pressure Air Temp Water Temp Dewpoint Dewpoint Depression Visibility Wind Speed Wind Dir Waves Ship Positions

Portland

Owner: Shaver Transportation Company, Portland, OR. More information available from US FCC via Universal Licensing System and Coast Guard Vessel Documentation Center.

Last reported at 2016-Jul-25 21:33 UTC. Time now 2016-Jul-25 22:02 UTC.
Position N 46°05' W 122°56'.

Length 27 m; draft 4 m.

Type: Towing. MMSI: 367315814.

Date/timePositionNaut miles runAvg speedWind from/ knotsBaromVisibWave heightAir tempDewpointWater temp
2016-Jul-25 21:33N 46°05' W 122°56'0 0.0
2016-Jul-25 20:33N 46°05' W 122°56'0 0.0
2016-Jul-25 19:33N 46°05' W 122°56'5 5.2
2016-Jul-25 18:34N 46°01' W 122°52'5 5.0
2016-Jul-25 17:32N 46°05' W 122°56'0 0.0
2016-Jul-25 16:32N 46°05' W 122°56'0 0.0
2016-Jul-25 15:32N 46°05' W 122°56'0 0.0
2016-Jul-25 14:32N 46°05' W 122°56'0 0.0
2016-Jul-25 13:32N 46°05' W 122°56'0 0.0
2016-Jul-25 12:26N 46°05' W 122°56'0 0.0
2016-Jul-25 11:32N 46°05' W 122°56'0 0.0
2016-Jul-25 10:32N 46°05' W 122°56'0 0.0
2016-Jul-25 09:32N 46°05' W 122°56'5 4.7
2016-Jul-25 08:33N 46°02' W 122°52'5 4.6
2016-Jul-25 07:33N 46°05' W 122°56'0 0.0
2016-Jul-25 06:31N 46°05' W 122°56'0 0.0
2016-Jul-25 05:28N 46°05' W 122°56'0 0.0
2016-Jul-25 04:31N 46°05' W 122°56'0 0.0
2016-Jul-25 03:28N 46°05' W 122°56'0 0.0
2016-Jul-25 02:28N 46°05' W 122°56'0 0.0
2016-Jul-25 01:28N 46°05' W 122°56'0 0.0
2016-Jul-25 00:31N 46°05' W 122°56'0 0.0
2016-Jul-24 23:31N 46°05' W 122°56'0 0.0
2016-Jul-24 22:31N 46°05' W 122°56'0 0.0
2016-Jul-24 21:31N 46°05' W 122°56'0 0.0
2016-Jul-24 20:28N 46°05' W 122°56'0 0.0
2016-Jul-24 19:28N 46°05' W 122°56'0 0.0
2016-Jul-24 18:28N 46°05' W 122°56'0 0.0
2016-Jul-24 17:28N 46°05' W 122°56'0 0.0
2016-Jul-24 16:31N 46°05' W 122°56'0 0.0
2016-Jul-24 15:28N 46°05' W 122°56'0 0.0
2016-Jul-24 14:31N 46°05' W 122°56'0 0.0
2016-Jul-24 13:31N 46°05' W 122°56'0 0.0
2016-Jul-24 12:28N 46°05' W 122°56'0 0.0
2016-Jul-24 11:31N 46°05' W 122°56'0 0.0
2016-Jul-24 10:31N 46°05' W 122°56'0 0.0
2016-Jul-24 09:28N 46°05' W 122°56'0 0.0
2016-Jul-24 08:28N 46°05' W 122°56'0 0.0
2016-Jul-24 07:31N 46°05' W 122°56'0 0.0
2016-Jul-24 06:31N 46°05' W 122°56'0 0.0
2016-Jul-24 05:28N 46°05' W 122°56'0 0.0
2016-Jul-24 04:31N 46°05' W 122°56'0 0.0
2016-Jul-24 03:31N 46°05' W 122°56'0 0.0
2016-Jul-24 02:28N 46°05' W 122°56'0 0.0
2016-Jul-24 01:22N 46°05' W 122°56'0 0.0
2016-Jul-24 00:31N 46°05' W 122°56'0 0.0
2016-Jul-23 23:31N 46°05' W 122°56'0 0.0
2016-Jul-23 22:31N 46°05' W 122°56'0 0.0
2016-Jul-23 21:28N 46°05' W 122°56'0 0.0
2016-Jul-23 20:31N 46°05' W 122°56'0 0.0
2016-Jul-23 19:31N 46°05' W 122°56'0 0.0
2016-Jul-23 18:31N 46°05' W 122°56'0 0.0
2016-Jul-23 17:28N 46°05' W 122°56'0 0.0
2016-Jul-23 16:28N 46°05' W 122°56'0 0.0
2016-Jul-23 15:31N 46°05' W 122°56'0 0.0
2016-Jul-23 14:31N 46°05' W 122°56'0 0.0
2016-Jul-23 13:34N 46°05' W 122°56'8 7.5
2016-Jul-23 12:33N 45°59' W 122°50'4 4.2
2016-Jul-23 11:34N 46°03' W 122°53'5 4.7
2016-Jul-23 10:33N 46°06' W 122°57'1 1.4
2016-Jul-23 09:33N 46°05' W 122°56'0 0.0
2016-Jul-23 08:33N 46°05' W 122°56'0 0.0
2016-Jul-23 07:34N 46°05' W 122°56'0 0.0
2016-Jul-23 06:33N 46°05' W 122°56'0 0.0
2016-Jul-23 04:33N 46°05' W 122°56'0 0.0
2016-Jul-23 03:33N 46°05' W 122°56'0 0.0
2016-Jul-23 02:34N 46°05' W 122°56'0 0.0
2016-Jul-23 01:33N 46°05' W 122°56'0 0.0
2016-Jul-23 00:33N 46°05' W 122°56'0 0.0
2016-Jul-22 23:33N 46°05' W 122°56'0 0.0
2016-Jul-22 22:33N 46°05' W 122°56'0 0.0
2016-Jul-22 21:34N 46°05' W 122°56'0 0.0
2016-Jul-22 20:33N 46°05' W 122°56'0 0.0
2016-Jul-22 19:33N 46°05' W 122°56'0 0.0
2016-Jul-22 18:33N 46°05' W 122°56'0 0.0
2016-Jul-22 17:34N 46°05' W 122°56'0 0.0
2016-Jul-22 16:33N 46°05' W 122°56'0 0.0
2016-Jul-22 15:34N 46°05' W 122°56'2 2.0
2016-Jul-22 14:33N 46°07' W 122°58'10 9.9
2016-Jul-22 13:33N 46°11' W 123°11'2 1.8
2016-Jul-22 12:33N 46°11' W 123°09'1010.0
2016-Jul-22 11:34N 46°06' W 122°57'1 0.6
2016-Jul-22 10:33N 46°05' W 122°56'0 0.0
2016-Jul-22 09:33N 46°05' W 122°56'0 0.0
2016-Jul-22 08:33N 46°05' W 122°56'0 0.0
2016-Jul-22 07:33N 46°05' W 122°56'0 0.0
2016-Jul-22 04:30N 46°05' W 122°56'0 0.0
2016-Jul-22 03:33N 46°05' W 122°56'0 0.0
2016-Jul-22 02:30N 46°05' W 122°56'0 0.0
2016-Jul-22 01:30N 46°05' W 122°56'0 0.0
2016-Jul-22 00:30N 46°05' W 122°56'0 0.5
2016-Jul-21 23:33N 46°06' W 122°56'1 1.1
2016-Jul-21 22:34N 46°05' W 122°55'1 0.7
2016-Jul-21 21:33N 46°05' W 122°56'0 0.0
2016-Jul-21 20:33N 46°05' W 122°56'0 0.0
2016-Jul-21 19:33N 46°05' W 122°56'0 0.0
2016-Jul-21 18:33N 46°05' W 122°56'0 0.0
2016-Jul-21 17:33N 46°05' W 122°56'0 0.0
2016-Jul-21 16:33N 46°05' W 122°56'0 0.0
2016-Jul-21 15:30N 46°05' W 122°56'0 0.0
2016-Jul-21 14:33N 46°05' W 122°56'0 0.0
2016-Jul-21 13:33N 46°05' W 122°56'0 0.0
2016-Jul-21 12:33N 46°05' W 122°56'0 0.0
2016-Jul-21 11:33N 46°05' W 122°56'1 0.6
2016-Jul-21 10:34N 46°06' W 122°56'0 0.0
2016-Jul-21 09:33N 46°06' W 122°56'0 0.1
2016-Jul-21 08:33N 46°06' W 122°56'0 0.1
2016-Jul-21 07:33N 46°06' W 122°56'1 0.6
2016-Jul-21 06:33N 46°05' W 122°56'0 0.0
2016-Jul-21 05:34N 46°05' W 122°56'0 0.0
2016-Jul-21 04:33N 46°05' W 122°56'0 0.0
2016-Jul-21 03:33N 46°05' W 122°56'0 0.0
2016-Jul-21 02:34N 46°05' W 122°56'0 0.0
2016-Jul-21 01:34N 46°05' W 122°56'0 0.0
2016-Jul-21 00:34N 46°05' W 122°56'0 0.0
2016-Jul-20 23:33N 46°05' W 122°56'0 0.0
2016-Jul-20 22:34N 46°05' W 122°56'0 0.0
2016-Jul-20 21:33N 46°05' W 122°56'2 1.5
2016-Jul-20 20:31N 46°06' W 122°58'2 1.6
2016-Jul-20 19:32N 46°05' W 122°56'0 0.0
2016-Jul-20 18:23N 46°05' W 122°56'0 0.0
2016-Jul-20 17:26N 46°05' W 122°56'0 0.0
2016-Jul-20 16:32N 46°05' W 122°56'0 0.0
2016-Jul-20 15:32N 46°05' W 122°56'0 0.0
2016-Jul-20 14:33N 46°05' W 122°56'8 7.8
2016-Jul-20 13:33N 46°10' W 123°05'4 4.3
2016-Jul-20 12:34N 46°11' W 123°11'3 3.2
2016-Jul-20 11:34N 46°11' W 123°06'7 7.1
2016-Jul-20 10:33N 46°07' W 122°58'2 1.9
2016-Jul-20 09:32N 46°05' W 122°56'0 0.0
2016-Jul-20 08:29N 46°05' W 122°56'0 0.0
2016-Jul-20 07:29N 46°05' W 122°56'0 0.0
2016-Jul-20 06:32N 46°05' W 122°56'0 0.0
2016-Jul-20 05:32N 46°05' W 122°56'0 0.0
2016-Jul-20 04:29N 46°05' W 122°56'0 0.0
2016-Jul-20 03:29N 46°05' W 122°56'0 0.0
2016-Jul-20 02:32N 46°05' W 122°56'0 0.0
2016-Jul-20 01:32N 46°05' W 122°56'0 0.0
2016-Jul-20 00:32N 46°05' W 122°56'0 0.0
2016-Jul-19 23:32N 46°05' W 122°56'0 0.0
2016-Jul-19 22:32N 46°05' W 122°56'0 0.0
2016-Jul-19 21:32N 46°05' W 122°56'0 0.0
2016-Jul-19 20:29N 46°05' W 122°56'0 0.0
2016-Jul-19 19:29N 46°05' W 122°56'0 0.0
2016-Jul-19 18:32N 46°05' W 122°56'0 0.0
2016-Jul-19 17:29N 46°05' W 122°56'0 0.0
2016-Jul-19 16:32N 46°05' W 122°56'0 0.0
2016-Jul-19 15:29N 46°05' W 122°56'0 0.0
2016-Jul-19 14:32N 46°05' W 122°56'0 0.0
2016-Jul-19 13:32N 46°05' W 122°56'0 0.0
2016-Jul-19 12:29N 46°05' W 122°56'0 0.0
2016-Jul-19 11:32N 46°05' W 122°56'0 0.0
2016-Jul-19 10:32N 46°05' W 122°56'0 0.0
2016-Jul-19 09:32N 46°05' W 122°56'0 0.0
2016-Jul-19 08:32N 46°05' W 122°56'0 0.0
2016-Jul-19 07:32N 46°05' W 122°56'0 0.0
2016-Jul-19 04:29N 46°05' W 122°56'0 0.0
2016-Jul-19 03:32N 46°05' W 122°56'2 1.6
2016-Jul-19 02:33N 46°06' W 122°58'0 0.3
2016-Jul-19 01:33N 46°06' W 122°58'2 1.6
2016-Jul-19 00:31N 46°05' W 122°56'0 0.0
2016-Jul-18 23:31N 46°05' W 122°56'0 0.0
2016-Jul-18 22:31N 46°05' W 122°56'0 0.0
2016-Jul-18 21:31N 46°05' W 122°56'0 0.0
2016-Jul-18 20:25N 46°05' W 122°56'0 0.0
2016-Jul-18 19:31N 46°05' W 122°56'1 1.1
2016-Jul-18 18:33N 46°06' W 122°57'0 0.5
2016-Jul-18 17:33N 46°06' W 122°58'2 1.4
2016-Jul-18 16:28N 46°05' W 122°56'0 0.0
2016-Jul-18 15:28N 46°05' W 122°56'0 0.0
2016-Jul-18 14:31N 46°05' W 122°56'0 0.5
2016-Jul-18 13:33N 46°06' W 122°56'1 1.3
2016-Jul-18 12:33N 46°06' W 122°58'2 1.5
2016-Jul-18 11:29N 46°05' W 122°56'0 0.0
2016-Jul-18 10:32N 46°05' W 122°56'0 0.0
2016-Jul-18 09:32N 46°05' W 122°56'0 0.0
2016-Jul-18 08:32N 46°05' W 122°56'0 0.0
2016-Jul-18 07:32N 46°05' W 122°56'0 0.0
2016-Jul-18 06:32N 46°05' W 122°56'0 0.0
2016-Jul-18 05:29N 46°05' W 122°56'0 0.0
2016-Jul-18 04:32N 46°05' W 122°56'0 0.0
2016-Jul-18 03:29N 46°05' W 122°56'0 0.0
2016-Jul-18 02:26N 46°05' W 122°56'0 0.0
2016-Jul-18 01:26N 46°05' W 122°56'0 0.0
2016-Jul-18 00:32N 46°05' W 122°56'0 0.0
2016-Jul-17 23:32N 46°05' W 122°56'0 0.0
2016-Jul-17 22:32N 46°05' W 122°56'0 0.0
2016-Jul-17 21:33N 46°05' W 122°56'8 7.7
2016-Jul-17 20:34N 45°59' W 122°50'0 0.0
2016-Jul-17 19:33N 45°59' W 122°50'1010.5
2016-Jul-17 18:34N 45°49' W 122°48'1010.2
2016-Jul-17 17:33N 45°39' W 122°45'0 0.0
2016-Jul-17 16:34N 45°39' W 122°45'0 0.0
2016-Jul-17 15:34N 45°39' W 122°45'0 0.0
2016-Jul-17 14:33N 45°39' W 122°45'0 0.0
2016-Jul-17 13:34N 45°39' W 122°45'0 0.0
2016-Jul-17 12:33N 45°39' W 122°45'0 0.0
2016-Jul-17 11:33N 45°39' W 122°45'0 0.0
2016-Jul-17 10:33N 45°39' W 122°45'0 0.0
2016-Jul-17 09:34N 45°39' W 122°45'0 0.0
2016-Jul-17 08:34N 45°39' W 122°45'0 0.0
2016-Jul-17 07:34N 45°39' W 122°45'0 0.0
2016-Jul-17 06:33N 45°39' W 122°45'0 0.0
2016-Jul-17 04:33N 45°39' W 122°45'0 0.0
2016-Jul-17 03:31N 45°39' W 122°45'0 0.0
2016-Jul-17 02:28N 45°39' W 122°45'0 0.0
2016-Jul-17 01:31N 45°39' W 122°45'0 0.0
2016-Jul-17 00:31N 45°39' W 122°45'0 0.0
2016-Jul-16 23:31N 45°39' W 122°45'0 0.0
2016-Jul-16 22:31N 45°39' W 122°45'0 0.0
2016-Jul-16 21:31N 45°39' W 122°45'0 0.0
2016-Jul-16 20:28N 45°39' W 122°45'0 0.0
2016-Jul-16 19:31N 45°39' W 122°45'0 0.0
2016-Jul-16 18:28N 45°39' W 122°45'0 0.0
2016-Jul-16 17:28N 45°39' W 122°45'0 0.0
2016-Jul-16 16:31N 45°39' W 122°45'0 0.0
2016-Jul-16 15:31N 45°39' W 122°45'0 0.0
2016-Jul-16 14:31N 45°39' W 122°45'0 0.0
2016-Jul-16 13:28N 45°39' W 122°45'0 0.0
2016-Jul-16 12:31N 45°39' W 122°45'0 0.0
2016-Jul-16 11:28N 45°39' W 122°45'0 0.0
2016-Jul-16 10:28N 45°39' W 122°45'0 0.0
2016-Jul-16 09:28N 45°39' W 122°45'0 0.0
2016-Jul-16 08:31N 45°39' W 122°45'0 0.0
2016-Jul-16 07:31N 45°39' W 122°45'0 0.0
2016-Jul-16 06:28N 45°39' W 122°45'0 0.0
2016-Jul-16 04:28N 45°39' W 122°45'0 0.0
2016-Jul-16 03:31N 45°39' W 122°45'0 0.0
2016-Jul-16 02:28N 45°39' W 122°45'0 0.0
2016-Jul-16 01:31N 45°39' W 122°45'0 0.0
2016-Jul-16 00:22N 45°39' W 122°45'0 0.0
2016-Jul-15 23:28N 45°39' W 122°45'0 0.0
2016-Jul-15 22:31N 45°39' W 122°45'  

Dump ship's entire track history